sensor_id;sensor_type;location;lat;lon;timestamp;pressure;altitude;pressure_sealevel;temperature;humidity
66176;BME280;52977;44.816;20.538;2023-11-19T00:00:58;100296.53;;;4.70;88.56
66176;BME280;52977;44.816;20.538;2023-11-19T00:03:24;100325.81;;;4.99;87.42
66176;BME280;52977;44.816;20.538;2023-11-19T00:05:50;100273.78;;;4.45;87.81
66176;BME280;52977;44.816;20.538;2023-11-19T00:08:16;100337.97;;;4.81;88.91
66176;BME280;52977;44.816;20.538;2023-11-19T00:10:42;100330.91;;;4.79;88.14
66176;BME280;52977;44.816;20.538;2023-11-19T00:13:09;100341.47;;;4.76;88.35
66176;BME280;52977;44.816;20.538;2023-11-19T00:15:36;100307.88;;;4.51;88.70
66176;BME280;52977;44.816;20.538;2023-11-19T00:18:02;100333.59;;;4.74;89.01
66176;BME280;52977;44.816;20.538;2023-11-19T00:20:31;100324.09;;;4.51;89.01
66176;BME280;52977;44.816;20.538;2023-11-19T00:22:57;100338.47;;;4.62;88.99
66176;BME280;52977;44.816;20.538;2023-11-19T00:25:23;100282.94;;;4.23;88.93
66176;BME280;52977;44.816;20.538;2023-11-19T00:27:48;100336.28;;;4.64;89.26
66176;BME280;52977;44.816;20.538;2023-11-19T00:30:16;100320.34;;;4.62;88.28
66176;BME280;52977;44.816;20.538;2023-11-19T00:32:42;100327.38;;;4.74;87.69
66176;BME280;52977;44.816;20.538;2023-11-19T00:35:09;100339.56;;;4.66;88.21
66176;BME280;52977;44.816;20.538;2023-11-19T00:37:40;100327.34;;;4.48;88.01
66176;BME280;52977;44.816;20.538;2023-11-19T00:40:09;100327.06;;;4.44;88.10
66176;BME280;52977;44.816;20.538;2023-11-19T00:42:36;100346.31;;;4.64;88.41
66176;BME280;52977;44.816;20.538;2023-11-19T00:45:04;100338.72;;;4.66;88.13
66176;BME280;52977;44.816;20.538;2023-11-19T00:47:35;100302.47;;;4.51;87.60
66176;BME280;52977;44.816;20.538;2023-11-19T00:50:02;100286.78;;;4.53;86.72
66176;BME280;52977;44.816;20.538;2023-11-19T00:52:29;100327.38;;;4.74;86.72
66176;BME280;52977;44.816;20.538;2023-11-19T00:54:55;100261.88;;;4.36;87.58
66176;BME280;52977;44.816;20.538;2023-11-19T00:57:22;100289.97;;;4.24;87.69
66176;BME280;52977;44.816;20.538;2023-11-19T00:59:49;100326.25;;;4.49;87.49
66176;BME280;52977;44.816;20.538;2023-11-19T01:02:15;100278.84;;;4.16;89.18
66176;BME280;52977;44.816;20.538;2023-11-19T01:04:42;100320.00;;;4.43;88.40
66176;BME280;52977;44.816;20.538;2023-11-19T01:07:08;100318.66;;;4.46;87.75
66176;BME280;52977;44.816;20.538;2023-11-19T01:09:41;100308.69;;;4.47;87.84
66176;BME280;52977;44.816;20.538;2023-11-19T01:12:07;100296.50;;;4.39;88.29
66176;BME280;52977;44.816;20.538;2023-11-19T01:14:34;100260.44;;;4.02;88.16
66176;BME280;52977;44.816;20.538;2023-11-19T01:17:01;100250.41;;;3.92;88.80
66176;BME280;52977;44.816;20.538;2023-11-19T01:19:27;100289.97;;;4.24;88.11
66176;BME280;52977;44.816;20.538;2023-11-19T01:21:55;100328.41;;;4.37;87.98
66176;BME280;52977;44.816;20.538;2023-11-19T01:24:22;100320.19;;;4.16;88.05
66176;BME280;52977;44.816;20.538;2023-11-19T01:26:48;100321.28;;;4.25;87.89
66176;BME280;52977;44.816;20.538;2023-11-19T01:29:15;100316.94;;;4.14;89.49
66176;BME280;52977;44.816;20.538;2023-11-19T01:31:46;100290.34;;;3.90;88.46
66176;BME280;52977;44.816;20.538;2023-11-19T01:34:18;100279.53;;;3.85;88.89
66176;BME280;52977;44.816;20.538;2023-11-19T01:36:44;100303.94;;;4.06;89.81
66176;BME280;52977;44.816;20.538;2023-11-19T01:39:12;100329.38;;;4.15;88.77
66176;BME280;52977;44.816;20.538;2023-11-19T01:41:38;100291.75;;;3.98;89.41
66176;BME280;52977;44.816;20.538;2023-11-19T01:44:08;100315.91;;;4.20;89.33
66176;BME280;52977;44.816;20.538;2023-11-19T01:46:35;100302.84;;;4.07;88.52
66176;BME280;52977;44.816;20.538;2023-11-19T01:49:02;100277.88;;;3.79;90.10
66176;BME280;52977;44.816;20.538;2023-11-19T01:51:30;100265.97;;;3.75;88.51
66176;BME280;52977;44.816;20.538;2023-11-19T01:53:57;100333.69;;;4.11;89.51
66176;BME280;52977;44.816;20.538;2023-11-19T01:56:25;100325.34;;;4.18;89.67
66176;BME280;52977;44.816;20.538;2023-11-19T01:58:54;100280.13;;;3.98;88.85
66176;BME280;52977;44.816;20.538;2023-11-19T02:01:22;100305.88;;;4.21;88.84
66176;BME280;52977;44.816;20.538;2023-11-19T02:03:48;100189.44;;;3.44;89.07
66176;BME280;52977;44.816;20.538;2023-11-19T02:06:14;100314.00;;;4.21;88.38
66176;BME280;52977;44.816;20.538;2023-11-19T02:08:41;100312.91;;;4.17;89.44
66176;BME280;52977;44.816;20.538;2023-11-19T02:11:08;100310.97;;;4.07;89.58
66176;BME280;52977;44.816;20.538;2023-11-19T02:13:34;100327.47;;;4.10;89.46
66176;BME280;52977;44.816;20.538;2023-11-19T02:16:03;100224.31;;;3.55;89.18
66176;BME280;52977;44.816;20.538;2023-11-19T02:18:30;100275.47;;;3.88;88.79
66176;BME280;52977;44.816;20.538;2023-11-19T02:20:57;100323.44;;;4.18;88.68
66176;BME280;52977;44.816;20.538;2023-11-19T02:23:26;100318.84;;;4.14;89.16
66176;BME280;52977;44.816;20.538;2023-11-19T02:26:02;100308.56;;;4.16;88.64
66176;BME280;52977;44.816;20.538;2023-11-19T02:28:28;100312.38;;;4.15;89.40
66176;BME280;52977;44.816;20.538;2023-11-19T02:30:54;100280.34;;;3.86;88.63
66176;BME280;52977;44.816;20.538;2023-11-19T02:33:20;100333.38;;;4.07;89.12
66176;BME280;52977;44.816;20.538;2023-11-19T02:35:47;100324.22;;;4.08;89.15
66176;BME280;52977;44.816;20.538;2023-11-19T02:38:13;100333.38;;;4.07;89.57
66176;BME280;52977;44.816;20.538;2023-11-19T02:40:40;100334.22;;;4.08;89.12
66176;BME280;52977;44.816;20.538;2023-11-19T02:43:06;100337.97;;;4.07;89.46
66176;BME280;52977;44.816;20.538;2023-11-19T02:45:32;100279.16;;;3.66;88.96
66176;BME280;52977;44.816;20.538;2023-11-19T02:47:58;100326.59;;;4.00;88.83
66176;BME280;52977;44.816;20.538;2023-11-19T02:50:28;100334.13;;;3.92;89.41
66176;BME280;52977;44.816;20.538;2023-11-19T02:52:55;100346.84;;;3.97;89.77
66176;BME280;52977;44.816;20.538;2023-11-19T02:55:23;100314.13;;;3.88;89.18
66176;BME280;52977;44.816;20.538;2023-11-19T02:57:50;100337.44;;;4.05;88.92
66176;BME280;52977;44.816;20.538;2023-11-19T03:00:21;100313.41;;;4.03;89.18
66176;BME280;52977;44.816;20.538;2023-11-19T03:02:51;100330.09;;;4.00;89.14
66176;BME280;52977;44.816;20.538;2023-11-19T03:05:35;100344.44;;;4.06;88.22
66176;BME280;52977;44.816;20.538;2023-11-19T03:08:01;100334.47;;;4.06;88.36
66176;BME280;52977;44.816;20.538;2023-11-19T03:10:28;100342.78;;;3.94;89.42
66176;BME280;52977;44.816;20.538;2023-11-19T03:12:54;100346.06;;;4.02;88.44
66176;BME280;52977;44.816;20.538;2023-11-19T03:15:23;100323.06;;;3.94;88.32
66176;BME280;52977;44.816;20.538;2023-11-19T03:17:49;100270.19;;;3.55;88.51
66176;BME280;52977;44.816;20.538;2023-11-19T03:20:15;100330.38;;;3.93;88.58
66176;BME280;52977;44.816;20.538;2023-11-19T03:22:43;100314.63;;;3.80;89.74
66176;BME280;52977;44.816;20.538;2023-11-19T03:25:29;100272.06;;;3.50;89.63
66176;BME280;52977;44.816;20.538;2023-11-19T03:28:02;100284.00;;;3.59;89.47
66176;BME280;52977;44.816;20.538;2023-11-19T03:30:30;100326.50;;;3.79;89.54
66176;BME280;52977;44.816;20.538;2023-11-19T03:32:57;100297.84;;;3.78;89.47
66176;BME280;52977;44.816;20.538;2023-11-19T03:35:23;100315.19;;;3.87;88.54
66176;BME280;52977;44.816;20.538;2023-11-19T03:37:50;100310.59;;;3.83;89.18
66176;BME280;52977;44.816;20.538;2023-11-19T03:40:17;100307.84;;;3.78;88.82
66176;BME280;52977;44.816;20.538;2023-11-19T03:42:46;100309.53;;;3.89;88.94
66176;BME280;52977;44.816;20.538;2023-11-19T03:45:12;100291.91;;;3.76;89.10
66176;BME280;52977;44.816;20.538;2023-11-19T03:47:39;100249.16;;;3.57;88.82
66176;BME280;52977;44.816;20.538;2023-11-19T03:50:05;100271.91;;;3.72;88.29
66176;BME280;52977;44.816;20.538;2023-11-19T03:52:33;100303.09;;;3.95;88.41
66176;BME280;52977;44.816;20.538;2023-11-19T03:54:59;100270.28;;;3.66;88.30
66176;BME280;52977;44.816;20.538;2023-11-19T03:57:27;100307.41;;;3.91;88.49
66176;BME280;52977;44.816;20.538;2023-11-19T03:59:53;100290.81;;;3.72;88.95
66176;BME280;52977;44.816;20.538;2023-11-19T04:02:21;100308.41;;;3.80;89.20
66176;BME280;52977;44.816;20.538;2023-11-19T04:04:47;100313.16;;;3.62;88.89
66176;BME280;52977;44.816;20.538;2023-11-19T04:07:14;100306.47;;;3.75;89.67
66176;BME280;52977;44.816;20.538;2023-11-19T04:09:40;100249.34;;;3.40;88.51
66176;BME280;52977;44.816;20.538;2023-11-19T04:12:06;100296.53;;;3.81;88.45
66176;BME280;52977;44.816;20.538;2023-11-19T04:14:32;100304.91;;;3.84;88.71
66176;BME280;52977;44.816;20.538;2023-11-19T04:16:58;100265.84;;;3.54;88.49
66176;BME280;52977;44.816;20.538;2023-11-19T04:19:23;100327.09;;;3.91;88.29
66176;BME280;52977;44.816;20.538;2023-11-19T04:21:50;100317.06;;;3.82;87.73
66176;BME280;52977;44.816;20.538;2023-11-19T04:24:15;100269.63;;;3.48;88.48
66176;BME280;52977;44.816;20.538;2023-11-19T04:26:42;100237.44;;;3.36;88.36
66176;BME280;52977;44.816;20.538;2023-11-19T04:29:14;100303.03;;;3.85;88.06
66176;BME280;52977;44.816;20.538;2023-11-19T04:31:41;100302.75;;;3.81;87.79
66176;BME280;52977;44.816;20.538;2023-11-19T04:34:07;100302.19;;;3.79;89.10
66176;BME280;52977;44.816;20.538;2023-11-19T04:36:33;100249.91;;;3.48;88.41
66176;BME280;52977;44.816;20.538;2023-11-19T04:39:00;100268.06;;;3.63;88.83
66176;BME280;52977;44.816;20.538;2023-11-19T04:41:27;100289.22;;;3.76;88.39
66176;BME280;52977;44.816;20.538;2023-11-19T04:43:54;100282.19;;;3.75;88.82
66176;BME280;52977;44.816;20.538;2023-11-19T04:46:20;100275.44;;;3.78;88.52
66176;BME280;52977;44.816;20.538;2023-11-19T04:48:47;100267.06;;;3.79;88.70
66176;BME280;52977;44.816;20.538;2023-11-19T04:51:13;100280.63;;;3.84;88.04
66176;BME280;52977;44.816;20.538;2023-11-19T04:53:39;100281.66;;;3.73;88.94
66176;BME280;52977;44.816;20.538;2023-11-19T04:56:11;100276.00;;;3.80;89.14
66176;BME280;52977;44.816;20.538;2023-11-19T04:58:39;100271.09;;;3.71;87.88
66176;BME280;52977;44.816;20.538;2023-11-19T05:01:05;100210.91;;;3.23;89.26
66176;BME280;52977;44.816;20.538;2023-11-19T05:03:32;100216.25;;;2.80;89.99
66176;BME280;52977;44.816;20.538;2023-11-19T05:05:58;100261.63;;;3.69;88.58
66176;BME280;52977;44.816;20.538;2023-11-19T05:08:25;100249.25;;;3.73;88.89
66176;BME280;52977;44.816;20.538;2023-11-19T05:10:51;100235.16;;;3.71;88.75
66176;BME280;52977;44.816;20.538;2023-11-19T05:13:17;100230.81;;;3.59;88.67
66176;BME280;52977;44.816;20.538;2023-11-19T05:15:44;100244.88;;;3.67;89.19
66176;BME280;52977;44.816;20.538;2023-11-19T05:18:10;100056.47;;;2.52;89.36
66176;BME280;52977;44.816;20.538;2023-11-19T05:20:36;100199.66;;;3.36;89.61
66176;BME280;52977;44.816;20.538;2023-11-19T05:23:02;100239.47;;;3.67;88.81
66176;BME280;52977;44.816;20.538;2023-11-19T05:25:28;100236.28;;;3.70;88.66
66176;BME280;52977;44.816;20.538;2023-11-19T05:27:55;100239.75;;;3.65;88.87
66176;BME280;52977;44.816;20.538;2023-11-19T05:30:22;100214.78;;;3.42;89.53
66176;BME280;52977;44.816;20.538;2023-11-19T05:32:48;100192.91;;;3.39;89.31
66176;BME280;52977;44.816;20.538;2023-11-19T05:35:15;100238.94;;;3.65;89.62
66176;BME280;52977;44.816;20.538;2023-11-19T05:37:41;100206.41;;;3.39;89.70
66176;BME280;52977;44.816;20.538;2023-11-19T05:40:07;100177.72;;;3.22;89.83
66176;BME280;52977;44.816;20.538;2023-11-19T05:42:41;100233.81;;;3.68;89.81
66176;BME280;52977;44.816;20.538;2023-11-19T05:45:10;100192.13;;;3.49;89.43
66176;BME280;52977;44.816;20.538;2023-11-19T05:47:37;100222.97;;;3.58;89.95
66176;BME280;52977;44.816;20.538;2023-11-19T05:50:04;100196.16;;;3.41;90.83
66176;BME280;52977;44.816;20.538;2023-11-19T05:52:31;100229.78;;;3.66;90.56
66176;BME280;52977;44.816;20.538;2023-11-19T05:55:02;100235.41;;;3.64;89.42
66176;BME280;52977;44.816;20.538;2023-11-19T05:57:31;100210.16;;;3.33;89.59
66176;BME280;52977;44.816;20.538;2023-11-19T05:59:57;100232.44;;;3.61;89.19
66176;BME280;52977;44.816;20.538;2023-11-19T06:02:24;100229.44;;;3.52;89.37
66176;BME280;52977;44.816;20.538;2023-11-19T06:04:50;100227.22;;;3.44;89.43
66176;BME280;52977;44.816;20.538;2023-11-19T06:07:15;100155.41;;;2.89;89.39
66176;BME280;52977;44.816;20.538;2023-11-19T06:09:41;100240.50;;;3.50;89.29
66176;BME280;52977;44.816;20.538;2023-11-19T06:12:06;100245.59;;;3.47;89.44
66176;BME280;52977;44.816;20.538;2023-11-19T06:14:32;100251.03;;;3.52;89.36
66176;BME280;52977;44.816;20.538;2023-11-19T06:16:58;100245.88;;;3.50;89.50
66176;BME280;52977;44.816;20.538;2023-11-19T06:19:24;100222.63;;;3.44;90.30
66176;BME280;52977;44.816;20.538;2023-11-19T06:21:53;100231.03;;;3.53;89.91
66176;BME280;52977;44.816;20.538;2023-11-19T06:24:19;100230.25;;;3.57;90.11
66176;BME280;52977;44.816;20.538;2023-11-19T06:26:45;100232.97;;;3.63;89.36
66176;BME280;52977;44.816;20.538;2023-11-19T06:29:10;100189.63;;;3.27;89.07
66176;BME280;52977;44.816;20.538;2023-11-19T06:31:36;100232.88;;;3.42;89.80
66176;BME280;52977;44.816;20.538;2023-11-19T06:34:02;100252.34;;;3.49;90.71
66176;BME280;52977;44.816;20.538;2023-11-19T06:36:28;100208.69;;;3.15;89.91
66176;BME280;52977;44.816;20.538;2023-11-19T06:38:54;100262.09;;;3.55;89.89
66176;BME280;52977;44.816;20.538;2023-11-19T06:41:20;100261.59;;;3.64;88.91
66176;BME280;52977;44.816;20.538;2023-11-19T06:43:46;100279.47;;;3.75;89.31
66176;BME280;52977;44.816;20.538;2023-11-19T06:46:18;100269.19;;;3.67;88.40
66176;BME280;52977;44.816;20.538;2023-11-19T06:48:44;100274.91;;;3.81;88.61
66176;BME280;52977;44.816;20.538;2023-11-19T06:51:11;100265.19;;;3.74;89.01
66176;BME280;52977;44.816;20.538;2023-11-19T06:53:36;100228.50;;;3.36;89.38
66176;BME280;52977;44.816;20.538;2023-11-19T06:56:02;100266.81;;;3.75;88.90
66176;BME280;52977;44.816;20.538;2023-11-19T06:58:40;100206.41;;;3.39;89.07
66176;BME280;52977;44.816;20.538;2023-11-19T07:01:06;100236.22;;;3.65;88.87
66176;BME280;52977;44.816;20.538;2023-11-19T07:03:34;100214.59;;;3.59;88.66
66176;BME280;52977;44.816;20.538;2023-11-19T07:06:00;100218.38;;;3.58;89.03
66176;BME280;52977;44.816;20.538;2023-11-19T07:08:26;100262.50;;;3.80;88.91
66176;BME280;52977;44.816;20.538;2023-11-19T07:10:52;100256.72;;;3.61;89.20
66176;BME280;52977;44.816;20.538;2023-11-19T07:13:18;100265.47;;;3.83;89.39
66176;BME280;52977;44.816;20.538;2023-11-19T07:15:44;100269.28;;;3.87;89.15
66176;BME280;52977;44.816;20.538;2023-11-19T07:18:10;100274.72;;;3.92;89.44
66176;BME280;52977;44.816;20.538;2023-11-19T07:20:37;100237.88;;;3.71;89.07
66176;BME280;52977;44.816;20.538;2023-11-19T07:23:03;100251.47;;;3.91;89.25
66176;BME280;52977;44.816;20.538;2023-11-19T07:25:29;100251.44;;;3.86;88.44
66176;BME280;52977;44.816;20.538;2023-11-19T07:27:55;100209.75;;;3.56;88.37
66176;BME280;52977;44.816;20.538;2023-11-19T07:30:21;100222.50;;;3.76;88.53
66176;BME280;52977;44.816;20.538;2023-11-19T07:32:47;100257.66;;;3.92;89.19
66176;BME280;52977;44.816;20.538;2023-11-19T07:35:14;100255.28;;;3.96;89.02
66176;BME280;52977;44.816;20.538;2023-11-19T07:37:41;100265.84;;;4.13;87.93
66176;BME280;52977;44.816;20.538;2023-11-19T07:40:08;100197.94;;;3.73;88.11
66176;BME280;52977;44.816;20.538;2023-11-19T07:42:33;100233.13;;;3.93;87.13
66176;BME280;52977;44.816;20.538;2023-11-19T07:44:59;100263.44;;;4.16;88.02
66176;BME280;52977;44.816;20.538;2023-11-19T07:47:25;100263.97;;;4.18;87.22
66176;BME280;52977;44.816;20.538;2023-11-19T07:49:51;100278.06;;;4.20;87.53
66176;BME280;52977;44.816;20.538;2023-11-19T07:52:17;100291.78;;;4.03;88.24
66176;BME280;52977;44.816;20.538;2023-11-19T07:54:43;100270.72;;;4.05;88.80
66176;BME280;52977;44.816;20.538;2023-11-19T07:57:09;100196.78;;;3.58;89.14
66176;BME280;52977;44.816;20.538;2023-11-19T07:59:35;100260.75;;;4.16;88.22
66176;BME280;52977;44.816;20.538;2023-11-19T08:02:01;100253.69;;;4.10;88.84
66176;BME280;52977;44.816;20.538;2023-11-19T08:04:27;100259.16;;;4.20;87.31
66176;BME280;52977;44.816;20.538;2023-11-19T08:06:53;100255.63;;;4.20;87.51
66176;BME280;52977;44.816;20.538;2023-11-19T08:09:18;100235.03;;;4.08;88.00
66176;BME280;52977;44.816;20.538;2023-11-19T08:11:45;100238.06;;;4.27;87.83
66176;BME280;52977;44.816;20.538;2023-11-19T08:14:11;100245.13;;;4.39;86.93
66176;BME280;52977;44.816;20.538;2023-11-19T08:16:39;100253.25;;;4.49;87.08
66176;BME280;52977;44.816;20.538;2023-11-19T08:19:05;100227.28;;;4.33;86.76
66176;BME280;52977;44.816;20.538;2023-11-19T08:21:31;100240.25;;;4.41;86.36
66176;BME280;52977;44.816;20.538;2023-11-19T08:23:57;100205.06;;;4.15;87.12
66176;BME280;52977;44.816;20.538;2023-11-19T08:26:23;100242.97;;;4.46;86.83
66176;BME280;52977;44.816;20.538;2023-11-19T08:28:50;100249.47;;;4.40;87.82
66176;BME280;52977;44.816;20.538;2023-11-19T08:31:18;100247.03;;;4.59;86.53
66176;BME280;52977;44.816;20.538;2023-11-19T08:33:44;100234.06;;;4.56;86.17
66176;BME280;52977;44.816;20.538;2023-11-19T08:36:16;100243.00;;;4.67;85.50
66176;BME280;52977;44.816;20.538;2023-11-19T08:38:43;100234.34;;;4.54;85.78
66176;BME280;52977;44.816;20.538;2023-11-19T08:41:09;100247.63;;;4.66;86.21
66176;BME280;52977;44.816;20.538;2023-11-19T08:43:36;100237.34;;;4.73;84.64
66176;BME280;52977;44.816;20.538;2023-11-19T08:46:03;100243.28;;;4.86;84.74
66176;BME280;52977;44.816;20.538;2023-11-19T08:48:30;100186.22;;;4.56;83.62
66176;BME280;52977;44.816;20.538;2023-11-19T08:50:56;100159.16;;;4.41;84.27
66176;BME280;52977;44.816;20.538;2023-11-19T08:53:22;100177.81;;;4.53;84.49
66176;BME280;52977;44.816;20.538;2023-11-19T08:55:48;100217.31;;;4.90;82.52
66176;BME280;52977;44.816;20.538;2023-11-19T08:58:15;100218.13;;;4.95;82.37
66176;BME280;52977;44.816;20.538;2023-11-19T09:00:41;100133.22;;;4.50;81.25
66176;BME280;52977;44.816;20.538;2023-11-19T09:03:07;100200.25;;;4.84;81.74
66176;BME280;52977;44.816;20.538;2023-11-19T09:05:35;100162.94;;;4.66;82.60
66176;BME280;52977;44.816;20.538;2023-11-19T09:08:04;100130.25;;;4.47;81.13
66176;BME280;52977;44.816;20.538;2023-11-19T09:10:31;100163.78;;;4.66;81.64
66176;BME280;52977;44.816;20.538;2023-11-19T09:12:57;100191.34;;;4.84;80.95
66176;BME280;52977;44.816;20.538;2023-11-19T09:15:24;100230.56;;;5.07;81.61
66176;BME280;52977;44.816;20.538;2023-11-19T09:17:50;100225.13;;;4.96;81.45
66176;BME280;52977;44.816;20.538;2023-11-19T09:20:16;100227.31;;;5.00;82.04
66176;BME280;52977;44.816;20.538;2023-11-19T09:22:42;100212.69;;;5.06;80.63
66176;BME280;52977;44.816;20.538;2023-11-19T09:25:09;100171.63;;;4.68;81.04
66176;BME280;52977;44.816;20.538;2023-11-19T09:27:35;100156.47;;;4.61;82.07
66176;BME280;52977;44.816;20.538;2023-11-19T09:30:01;100092.41;;;4.41;81.46
66176;BME280;52977;44.816;20.538;2023-11-19T09:32:29;100164.00;;;4.90;81.77
66176;BME280;52977;44.816;20.538;2023-11-19T09:34:56;100202.94;;;5.15;81.05
66176;BME280;52977;44.816;20.538;2023-11-19T09:37:23;100199.13;;;5.16;82.20
66176;BME280;52977;44.816;20.538;2023-11-19T09:39:49;100194.81;;;5.10;82.27
66176;BME280;52977;44.816;20.538;2023-11-19T09:42:16;100195.06;;;5.24;81.72
66176;BME280;52977;44.816;20.538;2023-11-19T09:44:44;100126.66;;;4.97;82.26
66176;BME280;52977;44.816;20.538;2023-11-19T09:47:14;100147.94;;;5.35;80.41
66176;BME280;52977;44.816;20.538;2023-11-19T09:49:40;100139.81;;;5.40;80.08
66176;BME280;52977;44.816;20.538;2023-11-19T09:52:07;100173.78;;;5.72;80.63
66176;BME280;52977;44.816;20.538;2023-11-19T09:54:34;100168.03;;;5.84;77.56
66176;BME280;52977;44.816;20.538;2023-11-19T09:57:02;100166.66;;;5.87;77.02
66176;BME280;52977;44.816;20.538;2023-11-19T09:59:33;100178.59;;;5.86;77.24
66176;BME280;52977;44.816;20.538;2023-11-19T10:01:59;100153.63;;;5.89;80.37
66176;BME280;52977;44.816;20.538;2023-11-19T10:04:30;100167.69;;;6.06;77.58
66176;BME280;52977;44.816;20.538;2023-11-19T10:06:59;100113.66;;;5.70;77.10
66176;BME280;52977;44.816;20.538;2023-11-19T10:09:25;100125.75;;;5.88;76.13
66176;BME280;52977;44.816;20.538;2023-11-19T10:11:51;100126.88;;;5.82;77.28
66176;BME280;52977;44.816;20.538;2023-11-19T10:14:22;100137.72;;;5.82;78.45
66176;BME280;52977;44.816;20.538;2023-11-19T10:16:49;100164.16;;;6.06;76.12
66176;BME280;52977;44.816;20.538;2023-11-19T10:19:19;100155.47;;;6.09;74.24
66176;BME280;52977;44.816;20.538;2023-11-19T10:22:05;100150.63;;;5.95;74.45
66176;BME280;52977;44.816;20.538;2023-11-19T10:24:32;100116.69;;;6.08;72.42
66176;BME280;52977;44.816;20.538;2023-11-19T10:27:07;100103.97;;;6.09;73.33
66176;BME280;52977;44.816;20.538;2023-11-19T10:29:37;100085.38;;;5.92;73.28
66176;BME280;52977;44.816;20.538;2023-11-19T10:32:06;100085.88;;;5.94;73.04
66176;BME280;52977;44.816;20.538;2023-11-19T10:34:33;100028.59;;;5.71;71.95
66176;BME280;52977;44.816;20.538;2023-11-19T10:37:05;100071.28;;;5.90;71.76
66176;BME280;52977;44.816;20.538;2023-11-19T10:39:54;100080.75;;;5.97;72.98
66176;BME280;52977;44.816;20.538;2023-11-19T10:42:21;100001.06;;;5.59;72.66
66176;BME280;52977;44.816;20.538;2023-11-19T10:44:47;99996.38;;;5.70;71.84
66176;BME280;52977;44.816;20.538;2023-11-19T10:47:14;100005.44;;;5.89;71.68
66176;BME280;52977;44.816;20.538;2023-11-19T10:49:44;100051.00;;;6.22;72.06
66176;BME280;52977;44.816;20.538;2023-11-19T10:52:18;99970.81;;;5.81;71.58
66176;BME280;52977;44.816;20.538;2023-11-19T10:55:06;100002.34;;;6.06;71.12
66176;BME280;52977;44.816;20.538;2023-11-19T10:57:36;100003.72;;;6.04;71.44
66176;BME280;52977;44.816;20.538;2023-11-19T11:00:02;100053.88;;;6.36;71.33
66176;BME280;52977;44.816;20.538;2023-11-19T11:02:40;100077.06;;;6.47;71.29
66176;BME280;52977;44.816;20.538;2023-11-19T11:05:08;99972.38;;;5.87;77.11
66176;BME280;52977;44.816;20.538;2023-11-19T11:07:36;99859.88;;;5.36;69.16
66176;BME280;52977;44.816;20.538;2023-11-19T11:10:04;100040.53;;;6.69;68.75
66176;BME280;52977;44.816;20.538;2023-11-19T11:12:36;99999.69;;;6.30;68.18
66176;BME280;52977;44.816;20.538;2023-11-19T11:15:04;99990.28;;;6.23;68.25
66176;BME280;52977;44.816;20.538;2023-11-19T11:17:33;100023.31;;;6.54;68.05
66176;BME280;52977;44.816;20.538;2023-11-19T11:19:59;100006.34;;;6.43;67.05
66176;BME280;52977;44.816;20.538;2023-11-19T11:22:28;99977.44;;;6.33;67.13
66176;BME280;52977;44.816;20.538;2023-11-19T11:26:06;100020.66;;;6.73;67.89
66176;BME280;52977;44.816;20.538;2023-11-19T11:31:19;99977.31;;;6.44;68.47
66176;BME280;52977;44.816;20.538;2023-11-19T11:39:28;100008.94;;;6.78;65.26
66176;BME280;52977;44.816;20.538;2023-11-19T11:50:16;100001.16;;;6.71;66.95
66176;BME280;52977;44.816;20.538;2023-11-19T11:55:35;99983.31;;;6.65;65.20
66176;BME280;52977;44.816;20.538;2023-11-19T11:58:05;99903.44;;;6.28;65.54
66176;BME280;52977;44.816;20.538;2023-11-19T12:00:32;99935.84;;;6.43;67.25
66176;BME280;52977;44.816;20.538;2023-11-19T12:03:00;99932.25;;;6.48;65.16
66176;BME280;52977;44.816;20.538;2023-11-19T12:05:27;99929.31;;;6.44;64.94
66176;BME280;52977;44.816;20.538;2023-11-19T12:07:56;99989.53;;;6.65;65.75
66176;BME280;52977;44.816;20.538;2023-11-19T12:10:24;99972.53;;;6.60;66.23
66176;BME280;52977;44.816;20.538;2023-11-19T12:12:53;99975.19;;;6.65;65.86
66176;BME280;52977;44.816;20.538;2023-11-19T12:15:19;99966.31;;;6.59;66.01
66176;BME280;52977;44.816;20.538;2023-11-19T12:17:51;99966.81;;;6.61;67.22
66176;BME280;52977;44.816;20.538;2023-11-19T12:20:18;99961.38;;;6.61;66.15
66176;BME280;52977;44.816;20.538;2023-11-19T12:22:46;99960.81;;;6.64;67.37
66176;BME280;52977;44.816;20.538;2023-11-19T12:25:13;99962.50;;;6.60;68.09
66176;BME280;52977;44.816;20.538;2023-11-19T12:27:50;99967.78;;;6.71;67.95
66176;BME280;52977;44.816;20.538;2023-11-19T12:30:21;99964.19;;;6.75;68.17
66176;BME280;52977;44.816;20.538;2023-11-19T12:32:48;99936.75;;;6.58;65.52
66176;BME280;52977;44.816;20.538;2023-11-19T12:35:15;99875.84;;;6.02;65.94
66176;BME280;52977;44.816;20.538;2023-11-19T12:37:51;99920.59;;;6.23;67.21
66176;BME280;52977;44.816;20.538;2023-11-19T12:40:23;99957.13;;;6.55;70.66
66176;BME280;52977;44.816;20.538;2023-11-19T12:42:50;99958.91;;;6.65;68.67
66176;BME280;52977;44.816;20.538;2023-11-19T12:45:17;99885.94;;;6.20;67.96
66176;BME280;52977;44.816;20.538;2023-11-19T12:47:46;99957.22;;;6.69;66.86
66176;BME280;52977;44.816;20.538;2023-11-19T12:50:14;99907.69;;;6.39;67.22
66176;BME280;52977;44.816;20.538;2023-11-19T12:52:40;99936.91;;;6.66;67.27
66176;BME280;52977;44.816;20.538;2023-11-19T12:55:39;99874.50;;;6.23;69.44
66176;BME280;52977;44.816;20.538;2023-11-19T12:58:05;99941.72;;;6.50;69.91
66176;BME280;52977;44.816;20.538;2023-11-19T13:00:31;99933.06;;;6.48;69.01
66176;BME280;52977;44.816;20.538;2023-11-19T13:02:58;99891.31;;;6.25;68.27
66176;BME280;52977;44.816;20.538;2023-11-19T13:05:31;99930.78;;;6.56;67.52
66176;BME280;52977;44.816;20.538;2023-11-19T13:10:27;99905.13;;;6.48;67.38
66176;BME280;52977;44.816;20.538;2023-11-19T13:13:05;99936.97;;;6.61;69.87
66176;BME280;52977;44.816;20.538;2023-11-19T13:15:32;99870.38;;;6.31;67.81